Wetterdaten: Woche 22.08.05 - 28.08.05 (KW34)
Datum Zeit Temperatur Luftfeuchte Luftdruck Niederschlag Wind Richtung Sonne Solar Taupunkt Windchill
22.08.2005 00:00 15.6 C 100 % 1011.2 hPa 0.0 l/m 0.0 km/h (0 Bft) N 0.00 h 0 W/m 15.6 C 15.6 C
22.08.2005 01:00 15.9 C 100 % 1011.2 hPa 2.6 l/m 0.0 km/h (0 Bft) N 0.00 h 0 W/m 15.9 C 15.9 C
22.08.2005 02:00 15.9 C 100 % 1011.1 hPa 1.0 l/m 0.0 km/h (0 Bft) N 0.00 h 0 W/m 15.9 C 15.9 C
22.08.2005 03:00 16.0 C 100 % 1010.1 hPa 0.6 l/m 0.0 km/h (0 Bft) N 0.00 h 0 W/m 16.0 C 16.0 C
22.08.2005 04:00 16.0 C 100 % 1010.1 hPa 0.3 l/m 0.0 km/h (0 Bft) N 0.00 h 0 W/m 16.0 C 16.0 C
22.08.2005 05:00 15.9 C 100 % 1010.2 hPa 1.3 l/m 0.0 km/h (0 Bft) N 0.00 h 0 W/m 15.9 C 15.9 C
22.08.2005 06:00 15.9 C 100 % 1010.2 hPa 0.6 l/m 0.0 km/h (0 Bft) N 0.00 h 2 W/m 15.9 C 15.9 C
22.08.2005 07:00 16.0 C 100 % 1010.1 hPa 1.0 l/m 0.0 km/h (0 Bft) N 0.00 h 7 W/m 16.0 C 16.0 C
22.08.2005 08:00 16.3 C 100 % 1010.1 hPa 0.0 l/m 0.0 km/h (0 Bft) N 0.00 h 47 W/m 16.3 C 16.3 C
22.08.2005 09:00 16.6 C 99 % 1010.8 hPa 0.6 l/m 0.0 km/h (0 Bft) N 0.00 h 84 W/m 16.5 C 16.6 C
22.08.2005 10:00 17.2 C 98 % 1011.0 hPa 0.6 l/m 0.0 km/h (0 Bft) N 0.00 h 104 W/m 16.8 C 17.2 C
22.08.2005 11:00 17.4 C 98 % 1011.0 hPa 2.9 l/m 0.0 km/h (0 Bft) N 0.00 h 80 W/m 17.1 C 17.4 C
22.08.2005 12:00 17.6 C 97 % 1011.0 hPa 2.0 l/m 0.0 km/h (0 Bft) N 0.00 h 110 W/m 17.1 C 17.6 C
22.08.2005 13:00 17.6 C 96 % 1011.1 hPa 0.0 l/m 0.4 km/h (0 Bft) W 0.00 h 123 W/m 16.9 C 17.6 C
22.08.2005 14:00 17.6 C 94 % 1011.5 hPa 0.3 l/m 2.1 km/h (1 Bft) W-NW 0.00 h 143 W/m 16.6 C 17.6 C
22.08.2005 15:00 17.5 C 93 % 1012.0 hPa 0.0 l/m 1.5 km/h (1 Bft) W-NW 0.00 h 90 W/m 16.3 C 17.5 C
22.08.2005 16:00 17.2 C 95 % 1012.0 hPa 0.0 l/m 0.1 km/h (0 Bft) O-SO 0.00 h 63 W/m 16.4 C 17.2 C
22.08.2005 17:00 17.2 C 94 % 1012.0 hPa 0.3 l/m 0.2 km/h (0 Bft) W-NW 0.00 h 69 W/m 16.3 C 17.2 C
22.08.2005 18:00 17.3 C 95 % 1012.0 hPa 1.0 l/m 3.4 km/h (1 Bft) W-NW 0.00 h 40 W/m 16.4 C 17.3 C
22.08.2005 19:00 17.1 C 98 % 1012.1 hPa 0.3 l/m 3.7 km/h (1 Bft) W-NW 0.00 h 9 W/m 16.8 C 17.1 C
22.08.2005 20:00 17.1 C 99 % 1012.1 hPa 0.3 l/m 14.8 km/h (3 Bft) W-NW 0.00 h 1 W/m 17.0 C 17.1 C
22.08.2005 21:00 16.9 C 99 % 1012.5 hPa 0.0 l/m 23.6 km/h (4 Bft) W-NW 0.00 h 0 W/m 16.8 C 16.9 C
22.08.2005 22:00 16.7 C 98 % 1013.2 hPa 1.0 l/m 24.5 km/h (4 Bft) W-NW 0.00 h 0 W/m 16.4 C 16.7 C
22.08.2005 23:00 16.4 C 99 % 1013.2 hPa 0.0 l/m 23.2 km/h (4 Bft) W-NW 0.00 h 0 W/m 16.2 C 16.4 C
23.08.2005 00:00 16.2 C 98 % 1013.2 hPa 0.0 l/m 21.2 km/h (4 Bft) W-NW 0.00 h 0 W/m 15.9 C 16.2 C
23.08.2005 01:00 16.1 C 96 % 1013.4 hPa 0.0 l/m 16.5 km/h (3 Bft) W-NW 0.00 h 0 W/m 15.5 C 16.1 C
23.08.2005 02:00 15.7 C 95 % 1013.3 hPa 0.0 l/m 23.1 km/h (4 Bft) W-NW 0.00 h 0 W/m 15.0 C 15.7 C
23.08.2005 03:00 16.0 C 92 % 1013.3 hPa 0.0 l/m 28.4 km/h (4 Bft) W-NW 0.00 h 0 W/m 14.6 C 16.0 C
23.08.2005 04:00 16.0 C 91 % 1013.2 hPa 0.0 l/m 22.6 km/h (4 Bft) W-NW 0.00 h 0 W/m 14.5 C 16.0 C
23.08.2005 05:00 16.0 C 89 % 1013.2 hPa 0.0 l/m 26.3 km/h (4 Bft) W-NW 0.00 h 0 W/m 14.3 C 16.0 C
23.08.2005 06:00 15.8 C 90 % 1013.3 hPa 0.0 l/m 24.3 km/h (4 Bft) W-NW 0.00 h 3 W/m 14.2 C 15.8 C
23.08.2005 07:00 16.0 C 87 % 1014.2 hPa 0.0 l/m 11.8 km/h (2 Bft) W-NW 0.00 h 31 W/m 13.8 C 16.0 C
23.08.2005 08:00 16.4 C 81 % 1014.2 hPa 0.0 l/m 20.4 km/h (4 Bft) W-NW 0.00 h 108 W/m 13.0 C 16.4 C
23.08.2005 09:00 16.7 C 80 % 1014.7 hPa 0.0 l/m 12.1 km/h (2 Bft) W-NW 0.00 h 195 W/m 13.2 C 16.7 C
23.08.2005 10:00 17.4 C 77 % 1015.1 hPa 0.0 l/m 13.6 km/h (3 Bft) W-NW 0.23 h 315 W/m 13.3 C 17.4 C
23.08.2005 11:00 18.9 C 69 % 1014.9 hPa 0.0 l/m 16.6 km/h (3 Bft) W-NW 0.93 h 587 W/m 13.2 C 18.9 C
23.08.2005 12:00 20.3 C 61 % 1014.5 hPa 0.0 l/m 16.2 km/h (3 Bft) W-NW 0.97 h 738 W/m 12.5 C 20.3 C
23.08.2005 13:00 21.2 C 57 % 1013.7 hPa 0.0 l/m 19.8 km/h (3 Bft) W-NW 1.00 h 780 W/m 12.4 C 21.2 C
23.08.2005 14:00 22.0 C 54 % 1013.5 hPa 0.0 l/m 21.5 km/h (4 Bft) W-NW 1.00 h 731 W/m 12.2 C 22.0 C
23.08.2005 15:00 22.4 C 51 % 1013.5 hPa 0.0 l/m 27.4 km/h (4 Bft) W-NW 1.00 h 716 W/m 11.8 C 22.4 C
23.08.2005 16:00 22.5 C 50 % 1013.5 hPa 0.0 l/m 24.1 km/h (4 Bft) W-NW 0.77 h 491 W/m 11.4 C 22.5 C
23.08.2005 17:00 22.5 C 52 % 1013.5 hPa 0.0 l/m 17.1 km/h (3 Bft) W-NW 0.70 h 365 W/m 12.1 C 22.5 C
23.08.2005 18:00 21.5 C 54 % 1013.9 hPa 0.0 l/m 13.7 km/h (3 Bft) W-NW 0.87 h 263 W/m 11.7 C 21.5 C
23.08.2005 19:00 19.9 C 64 % 1014.8 hPa 0.0 l/m 18.0 km/h (3 Bft) W-NW 0.30 h 77 W/m 12.7 C 19.9 C
23.08.2005 20:00 18.1 C 73 % 1015.9 hPa 0.0 l/m 7.0 km/h (2 Bft) W-NW 0.00 h 10 W/m 13.2 C 18.1 C
23.08.2005 21:00 17.8 C 78 % 1016.1 hPa 0.0 l/m 8.1 km/h (2 Bft) W-NW 0.00 h 0 W/m 14.0 C 17.8 C
23.08.2005 22:00 17.4 C 82 % 1016.3 hPa 0.0 l/m 4.6 km/h (1 Bft) W-NW 0.00 h 0 W/m 14.2 C 17.4 C
23.08.2005 23:00 16.8 C 87 % 1017.3 hPa 0.0 l/m 0.1 km/h (0 Bft) N 0.00 h 0 W/m 14.5 C 16.8 C
24.08.2005 00:00 16.4 C 89 % 1017.3 hPa 0.0 l/m 0.0 km/h (0 Bft) N 0.00 h 0 W/m 14.6 C 16.4 C
24.08.2005 01:00 16.6 C 89 % 1016.6 hPa 0.0 l/m 1.0 km/h (0 Bft) NO 0.00 h 0 W/m 14.7 C 16.6 C
24.08.2005 02:00 16.6 C 88 % 1016.3 hPa 0.0 l/m 0.0 km/h (0 Bft) N 0.00 h 0 W/m 14.6 C 16.6 C
24.08.2005 03:00 16.4 C 89 % 1016.3 hPa 0.0 l/m 0.3 km/h (0 Bft) O 0.00 h 0 W/m 14.7 C 16.4 C
24.08.2005 04:00 16.4 C 92 % 1016.3 hPa 0.0 l/m 0.4 km/h (0 Bft) O 0.00 h 0 W/m 15.1 C 16.4 C
24.08.2005 05:00 16.4 C 89 % 1016.1 hPa 0.0 l/m 0.0 km/h (0 Bft) N 0.00 h 0 W/m 14.6 C 16.4 C
24.08.2005 06:00 16.2 C 91 % 1015.6 hPa 0.0 l/m 0.4 km/h (0 Bft) O 0.00 h 5 W/m 14.8 C 16.2 C
24.08.2005 07:00 16.3 C 92 % 1016.3 hPa 0.0 l/m 0.1 km/h (0 Bft) N 0.00 h 16 W/m 15.0 C 16.3 C
24.08.2005 08:00 16.8 C 87 % 1016.3 hPa 0.0 l/m 0.0 km/h (0 Bft) W 0.00 h 50 W/m 14.6 C 16.8 C
24.08.2005 09:00 17.4 C 83 % 1016.2 hPa 0.0 l/m 0.6 km/h (0 Bft) S 0.00 h 146 W/m 14.5 C 17.4 C
24.08.2005 10:00 18.3 C 77 % 1016.1 hPa 0.0 l/m 1.4 km/h (1 Bft) W-NW 0.38 h 399 W/m 14.1 C 18.3 C
24.08.2005 11:00 19.0 C 74 % 1015.0 hPa 0.0 l/m 0.2 km/h (0 Bft) SW 0.12 h 199 W/m 14.3 C 19.0 C
24.08.2005 12:00 19.6 C 71 % 1014.9 hPa 0.0 l/m 0.6 km/h (0 Bft) W 0.20 h 400 W/m 14.2 C 19.6 C
24.08.2005 13:00 21.1 C 63 % 1014.5 hPa 0.0 l/m 6.8 km/h (2 Bft) NW 0.75 h 631 W/m 13.7 C 21.1 C
24.08.2005 14:00 22.4 C 55 % 1013.5 hPa 0.0 l/m 8.9 km/h (2 Bft) W-NW 0.88 h 715 W/m 12.9 C 22.4 C
24.08.2005 15:00 23.4 C 49 % 1013.3 hPa 0.0 l/m 18.2 km/h (3 Bft) W-NW 1.00 h 687 W/m 12.1 C 23.4 C
24.08.2005 16:00 23.7 C 47 % 1012.7 hPa 0.0 l/m 17.2 km/h (3 Bft) W-NW 1.00 h 587 W/m 11.7 C 23.7 C
24.08.2005 17:00 24.0 C 51 % 1012.2 hPa 0.0 l/m 11.4 km/h (2 Bft) W-NW 1.00 h 443 W/m 13.1 C 24.0 C
24.08.2005 18:00 23.1 C 53 % 1012.3 hPa 0.0 l/m 7.7 km/h (2 Bft) W-NW 1.00 h 329 W/m 13.0 C 23.1 C
24.08.2005 19:00 21.4 C 60 % 1012.6 hPa 0.0 l/m 2.3 km/h (1 Bft) W 0.77 h 108 W/m 13.4 C 21.4 C
24.08.2005 20:00 18.8 C 73 % 1012.9 hPa 0.0 l/m 5.8 km/h (2 Bft) O-SO 0.03 h 10 W/m 13.9 C 18.8 C
24.08.2005 21:00 17.3 C 83 % 1013.1 hPa 0.0 l/m 3.3 km/h (1 Bft) O-SO 0.00 h 0 W/m 14.3 C 17.3 C
24.08.2005 22:00 16.5 C 85 % 1013.2 hPa 0.0 l/m 5.5 km/h (1 Bft) O-SO 0.00 h 0 W/m 14.1 C 16.5 C
24.08.2005 23:00 15.5 C 90 % 1013.3 hPa 0.0 l/m 0.0 km/h (0 Bft) N 0.00 h 0 W/m 13.8 C 15.5 C
25.08.2005 00:00 15.4 C 91 % 1013.3 hPa 0.0 l/m 0.0 km/h (0 Bft) N 0.00 h 0 W/m 13.9 C 15.4 C
25.08.2005 01:00 15.3 C 94 % 1013.3 hPa 0.0 l/m 0.0 km/h (0 Bft) N 0.00 h 0 W/m 14.4 C 15.3 C
25.08.2005 02:00 15.6 C 94 % 1012.8 hPa 0.0 l/m 0.0 km/h (0 Bft) N 0.00 h 0 W/m 14.6 C 15.6 C
25.08.2005 03:00 15.4 C 95 % 1012.3 hPa 0.0 l/m 0.0 km/h (0 Bft) N 0.00 h 0 W/m 14.6 C 15.4 C
25.08.2005 04:00 15.4 C 96 % 1012.3 hPa 0.0 l/m 0.0 km/h (0 Bft) N 0.00 h 0 W/m 14.7 C 15.4 C
25.08.2005 05:00 15.6 C 96 % 1012.0 hPa 0.0 l/m 0.0 km/h (0 Bft) N 0.00 h 0 W/m 14.9 C 15.6 C
25.08.2005 06:00 15.7 C 95 % 1011.2 hPa 0.0 l/m 0.0 km/h (0 Bft) N 0.00 h 5 W/m 14.9 C 15.7 C
25.08.2005 07:00 16.0 C 96 % 1011.2 hPa 0.0 l/m 0.0 km/h (0 Bft) N 0.00 h 33 W/m 15.4 C 16.0 C
25.08.2005 08:00 16.6 C 91 % 1011.1 hPa 0.0 l/m 0.0 km/h (0 Bft) N 0.07 h 101 W/m 15.1 C 16.6 C
25.08.2005 09:00 18.0 C 83 % 1010.2 hPa 0.0 l/m 0.6 km/h (0 Bft) NO 0.97 h 394 W/m 15.0 C 18.0 C
25.08.2005 10:00 19.9 C 71 % 1009.6 hPa 0.0 l/m 2.5 km/h (1 Bft) O-NO 0.70 h 362 W/m 14.5 C 19.9 C
25.08.2005 11:00 20.6 C 67 % 1009.5 hPa 0.0 l/m 2.6 km/h (1 Bft) SW 0.20 h 326 W/m 14.3 C 20.6 C
25.08.2005 12:00 21.8 C 62 % 1008.7 hPa 0.0 l/m 4.5 km/h (1 Bft) SW 0.67 h 459 W/m 14.1 C 21.8 C
25.08.2005 13:00 21.5 C 60 % 1008.4 hPa 0.0 l/m 4.4 km/h (1 Bft) W 0.00 h 248 W/m 13.5 C 21.5 C
25.08.2005 14:00 21.7 C 62 % 1008.9 hPa 0.0 l/m 4.8 km/h (1 Bft) W-NW 0.00 h 224 W/m 14.2 C 21.7 C
25.08.2005 15:00 21.3 C 59 % 1009.5 hPa 0.0 l/m 19.6 km/h (3 Bft) W-NW 0.00 h 232 W/m 12.8 C 21.3 C
25.08.2005 16:00 18.5 C 73 % 1010.8 hPa 0.0 l/m 25.6 km/h (4 Bft) W-NW 0.00 h 127 W/m 13.4 C 18.5 C
25.08.2005 17:00 17.7 C 81 % 1010.9 hPa 0.3 l/m 4.8 km/h (1 Bft) O-SO 0.00 h 140 W/m 14.4 C 17.7 C
25.08.2005 18:00 17.8 C 77 % 1010.9 hPa 0.0 l/m 6.1 km/h (2 Bft) O-SO 0.10 h 97 W/m 13.7 C 17.8 C
25.08.2005 19:00 17.6 C 78 % 1011.0 hPa 0.0 l/m 3.7 km/h (1 Bft) O-SO 0.00 h 12 W/m 13.6 C 17.6 C
25.08.2005 20:00 16.8 C 89 % 1012.1 hPa 0.3 l/m 5.1 km/h (1 Bft) W-NW 0.00 h 5 W/m 15.0 C 16.8 C
25.08.2005 21:00 16.4 C 96 % 1013.0 hPa 0.3 l/m 0.0 km/h (0 Bft) N 0.00 h 0 W/m 15.8 C 16.4 C
25.08.2005 22:00 16.4 C 98 % 1013.2 hPa 0.0 l/m 0.8 km/h (0 Bft) SO 0.00 h 0 W/m 16.0 C 16.4 C
25.08.2005 23:00 16.3 C 98 % 1014.1 hPa 0.3 l/m 2.4 km/h (1 Bft) W-NW 0.00 h 0 W/m 16.0 C 16.3 C
26.08.2005 00:00 16.3 C 96 % 1014.7 hPa 0.0 l/m 23.2 km/h (4 Bft) W-NW 0.00 h 0 W/m 15.6 C 16.3 C
26.08.2005 01:00 15.9 C 92 % 1015.3 hPa 0.0 l/m 14.5 km/h (3 Bft) W-NW 0.00 h 0 W/m 14.6 C 15.9 C
26.08.2005 02:00 15.5 C 93 % 1015.8 hPa 0.0 l/m 1.4 km/h (1 Bft) W 0.00 h 0 W/m 14.4 C 15.5 C
26.08.2005 03:00 15.3 C 92 % 1016.5 hPa 0.0 l/m 1.0 km/h (0 Bft) W 0.00 h 0 W/m 14.0 C 15.3 C
26.08.2005 04:00 15.2 C 93 % 1016.5 hPa 0.0 l/m 0.0 km/h (0 Bft) N 0.00 h 0 W/m 14.0 C 15.2 C
26.08.2005 05:00 14.9 C 92 % 1016.5 hPa 0.0 l/m 0.9 km/h (0 Bft) SO 0.00 h 0 W/m 13.7 C 14.9 C
26.08.2005 06:00 14.7 C 92 % 1016.7 hPa 0.0 l/m 1.9 km/h (1 Bft) O-SO 0.00 h 11 W/m 13.5 C 14.7 C
26.08.2005 07:00 14.9 C 93 % 1017.6 hPa 0.0 l/m 0.3 km/h (0 Bft) O-SO 0.37 h 67 W/m 13.7 C 14.9 C
26.08.2005 08:00 15.5 C 88 % 1017.9 hPa 0.0 l/m 0.0 km/h (0 Bft) N 0.27 h 145 W/m 13.5 C 15.5 C
26.08.2005 09:00 16.3 C 83 % 1018.4 hPa 0.0 l/m 0.1 km/h (0 Bft) N 0.13 h 178 W/m 13.4 C 16.3 C
26.08.2005 10:00 17.2 C 76 % 1018.4 hPa 0.0 l/m 7.5 km/h (2 Bft) W-NW 0.20 h 303 W/m 12.8 C 17.2 C
26.08.2005 11:00 17.7 C 71 % 1018.8 hPa 0.0 l/m 9.5 km/h (2 Bft) W-NW 0.10 h 290 W/m 12.3 C 17.7 C
26.08.2005 12:00 18.5 C 63 % 1018.1 hPa 0.0 l/m 11.0 km/h (2 Bft) W-NW 0.37 h 378 W/m 11.4 C 18.5 C
26.08.2005 13:00 19.4 C 56 % 1018.0 hPa 0.0 l/m 16.9 km/h (3 Bft) W-NW 0.53 h 573 W/m 10.3 C 19.4 C
26.08.2005 14:00 20.6 C 51 % 1017.8 hPa 0.0 l/m 19.1 km/h (3 Bft) W-NW 0.93 h 749 W/m 10.1 C 20.6 C
26.08.2005 15:00 21.0 C 48 % 1017.8 hPa 0.0 l/m 22.2 km/h (4 Bft) W-NW 0.93 h 606 W/m 9.5 C 21.0 C
26.08.2005 16:00 21.5 C 46 % 1017.7 hPa 0.0 l/m 19.1 km/h (3 Bft) W-NW 1.00 h 538 W/m 9.3 C 21.5 C
26.08.2005 17:00 21.2 C 47 % 1017.8 hPa 0.0 l/m 13.1 km/h (3 Bft) W-NW 0.77 h 330 W/m 9.4 C 21.2 C
26.08.2005 18:00 20.4 C 49 % 1017.9 hPa 0.0 l/m 15.6 km/h (3 Bft) W-NW 0.38 h 152 W/m 9.3 C 20.4 C
26.08.2005 19:00 19.5 C 53 % 1018.0 hPa 0.0 l/m 4.8 km/h (1 Bft) W-NW 0.32 h 66 W/m 9.6 C 19.5 C
26.08.2005 20:00 18.4 C 59 % 1019.1 hPa 0.0 l/m 0.5 km/h (0 Bft) W 0.03 h 10 W/m 10.3 C 18.4 C
26.08.2005 21:00 17.3 C 67 % 1019.3 hPa 0.0 l/m 0.0 km/h (0 Bft) N 0.00 h 0 W/m 11.1 C 17.3 C
26.08.2005 22:00 16.2 C 76 % 1019.4 hPa 0.0 l/m 0.0 km/h (0 Bft) N 0.00 h 0 W/m 12.0 C 16.2 C
26.08.2005 23:00 14.8 C 84 % 1019.6 hPa 0.0 l/m 0.5 km/h (0 Bft) NO 0.00 h 0 W/m 12.1 C 14.8 C
27.08.2005 00:00 14.3 C 87 % 1019.7 hPa 0.0 l/m 0.0 km/h (0 Bft) N 0.00 h 0 W/m 12.2 C 14.3 C
27.08.2005 01:00 14.2 C 87 % 1019.7 hPa 0.0 l/m 0.1 km/h (0 Bft) NO 0.00 h 0 W/m 12.1 C 14.2 C
27.08.2005 02:00 12.9 C 92 % 1019.9 hPa 0.0 l/m 0.1 km/h (0 Bft) N 0.00 h 0 W/m 11.6 C 12.9 C
27.08.2005 03:00 12.1 C 96 % 1020.0 hPa 0.0 l/m 0.0 km/h (0 Bft) N 0.00 h 0 W/m 11.4 C 12.1 C
27.08.2005 04:00 11.2 C 97 % 1020.1 hPa 0.0 l/m 0.0 km/h (0 Bft) N 0.00 h 0 W/m 10.9 C 11.2 C
27.08.2005 05:00 11.2 C 99 % 1020.1 hPa 0.0 l/m 0.0 km/h (0 Bft) N 0.00 h 0 W/m 11.0 C 11.2 C
27.08.2005 06:00 10.7 C 99 % 1020.2 hPa 0.0 l/m 0.0 km/h (0 Bft) N 0.20 h 22 W/m 10.6 C 10.7 C
27.08.2005 07:00 11.4 C 98 % 1020.1 hPa 0.0 l/m 0.1 km/h (0 Bft) O-NO 0.43 h 66 W/m 11.1 C 11.4 C
27.08.2005 08:00 12.6 C 88 % 1019.9 hPa 0.0 l/m 0.1 km/h (0 Bft) O 0.57 h 188 W/m 10.6 C 12.6 C
27.08.2005 09:00 13.9 C 79 % 1019.8 hPa 0.0 l/m 0.7 km/h (0 Bft) O 0.57 h 293 W/m 10.4 C 13.9 C
27.08.2005 10:00 16.0 C 68 % 1018.5 hPa 0.0 l/m 0.4 km/h (0 Bft) O 0.93 h 403 W/m 10.1 C 16.0 C
27.08.2005 11:00 17.7 C 62 % 1018.2 hPa 0.0 l/m 2.5 km/h (1 Bft) O 1.00 h 521 W/m 10.2 C 17.7 C
27.08.2005 12:00 19.3 C 60 % 1017.2 hPa 0.0 l/m 5.5 km/h (1 Bft) O-SO 0.83 h 560 W/m 11.4 C 19.3 C
27.08.2005 13:00 20.5 C 58 % 1016.8 hPa 0.0 l/m 5.5 km/h (1 Bft) O-SO 0.83 h 584 W/m 11.9 C 20.5 C
27.08.2005 14:00 21.5 C 56 % 1016.6 hPa 0.0 l/m 2.5 km/h (1 Bft) O-SO 0.97 h 558 W/m 12.3 C 21.5 C
27.08.2005 15:00 22.7 C 52 % 1015.5 hPa 0.0 l/m 3.7 km/h (1 Bft) O-SO 0.85 h 598 W/m 12.4 C 22.7 C
27.08.2005 16:00 23.8 C 50 % 1015.1 hPa 0.0 l/m 8.6 km/h (2 Bft) O-SO 1.02 h 516 W/m 12.8 C 23.8 C
27.08.2005 17:00 23.1 C 50 % 1014.4 hPa 0.0 l/m 3.0 km/h (1 Bft) O-SO 0.60 h 297 W/m 12.1 C 23.1 C
27.08.2005 18:00 21.7 C 57 % 1014.6 hPa 0.0 l/m 1.3 km/h (1 Bft) O-SO 0.13 h 133 W/m 12.7 C 21.7 C
27.08.2005 19:00 20.2 C 68 % 1014.8 hPa 0.0 l/m 2.5 km/h (1 Bft) O-SO 0.00 h 47 W/m 14.1 C 20.2 C
27.08.2005 20:00 18.6 C 75 % 1015.9 hPa 0.0 l/m 0.7 km/h (0 Bft) O-SO 0.05 h 8 W/m 14.1 C 18.6 C
27.08.2005 21:00 17.6 C 80 % 1016.2 hPa 0.0 l/m 0.3 km/h (0 Bft) O-SO 0.00 h 0 W/m 14.0 C 17.6 C
27.08.2005 22:00 17.1 C 82 % 1016.4 hPa 0.0 l/m 0.0 km/h (0 Bft) N 0.00 h 0 W/m 14.1 C 17.1 C
27.08.2005 23:00 17.1 C 82 % 1017.3 hPa 0.0 l/m 0.0 km/h (0 Bft) N 0.00 h 0 W/m 14.0 C 17.1 C
28.08.2005 00:00 16.9 C 85 % 1017.3 hPa 0.0 l/m 0.0 km/h (0 Bft) N 0.00 h 0 W/m 14.3 C 16.9 C
28.08.2005 01:00 16.8 C 80 % 1017.3 hPa 0.0 l/m 0.0 km/h (0 Bft) N 0.00 h 0 W/m 13.4 C 16.8 C
28.08.2005 02:00 16.5 C 78 % 1017.3 hPa 0.0 l/m 0.0 km/h (0 Bft) N 0.00 h 0 W/m 12.7 C 16.5 C
28.08.2005 03:00 16.1 C 78 % 1017.4 hPa 0.0 l/m 0.0 km/h (0 Bft) N 0.00 h 0 W/m 12.3 C 16.1 C
28.08.2005 04:00 15.8 C 78 % 1018.0 hPa 0.0 l/m 0.0 km/h (0 Bft) N 0.00 h 0 W/m 11.9 C 15.8 C
28.08.2005 05:00 15.4 C 76 % 1018.5 hPa 0.0 l/m 0.0 km/h (0 Bft) N 0.00 h 0 W/m 11.2 C 15.4 C
28.08.2005 06:00 15.1 C 75 % 1018.9 hPa 0.0 l/m 0.0 km/h (0 Bft) N 0.00 h 4 W/m 10.7 C 15.1 C
28.08.2005 07:00 15.1 C 74 % 1019.6 hPa 0.0 l/m 0.0 km/h (0 Bft) N 0.00 h 29 W/m 10.5 C 15.1 C
28.08.2005 08:00 14.9 C 79 % 1020.0 hPa 1.6 l/m 0.4 km/h (0 Bft) NO 0.00 h 32 W/m 11.2 C 14.9 C
28.08.2005 09:00 15.1 C 88 % 1020.6 hPa 0.0 l/m 0.1 km/h (0 Bft) N 0.57 h 270 W/m 13.1 C 15.1 C
28.08.2005 10:00 16.4 C 78 % 1020.5 hPa 0.0 l/m 0.1 km/h (0 Bft) N 1.00 h 544 W/m 12.5 C 16.4 C
28.08.2005 11:00 18.4 C 71 % 1020.2 hPa 0.0 l/m 2.9 km/h (1 Bft) O-SO 0.98 h 655 W/m 13.0 C 18.4 C
28.08.2005 12:00 20.9 C 64 % 1020.2 hPa 0.0 l/m 9.8 km/h (2 Bft) O-SO 1.02 h 739 W/m 13.9 C 20.9 C
28.08.2005 13:00 22.8 C 55 % 1020.0 hPa 0.0 l/m 18.6 km/h (3 Bft) O-SO 0.98 h 777 W/m 13.3 C 22.8 C
28.08.2005 14:00 23.8 C 50 % 1019.5 hPa 0.0 l/m 18.6 km/h (3 Bft) O-SO 1.00 h 745 W/m 12.7 C 23.8 C
28.08.2005 15:00 24.5 C 47 % 1019.4 hPa 0.0 l/m 16.5 km/h (3 Bft) O-SO 1.02 h 649 W/m 12.4 C 24.5 C
28.08.2005 16:00 25.2 C 45 % 1019.3 hPa 0.0 l/m 15.0 km/h (3 Bft) O-SO 1.00 h 533 W/m 12.4 C 25.2 C
28.08.2005 17:00 25.0 C 44 % 1019.4 hPa 0.0 l/m 10.2 km/h (2 Bft) O-SO 0.70 h 352 W/m 12.0 C 25.0 C
28.08.2005 18:00 23.9 C 46 % 1019.5 hPa 0.0 l/m 7.1 km/h (2 Bft) O-SO 1.02 h 274 W/m 11.6 C 23.9 C
28.08.2005 19:00 22.3 C 55 % 1019.7 hPa 0.0 l/m 1.1 km/h (1 Bft) O-SO 0.90 h 96 W/m 12.8 C 22.3 C
28.08.2005 20:00 19.4 C 66 % 1021.0 hPa 0.0 l/m 0.0 km/h (0 Bft) N 0.10 h 13 W/m 12.9 C 19.4 C
28.08.2005 21:00 17.2 C 79 % 1021.7 hPa 0.0 l/m 0.1 km/h (0 Bft) O-SO 0.00 h 0 W/m 13.5 C 17.2 C
28.08.2005 22:00 15.7 C 88 % 1022.6 hPa 0.0 l/m 0.0 km/h (0 Bft) N 0.00 h 0 W/m 13.6 C 15.7 C
28.08.2005 23:00 14.9 C 92 % 1022.7 hPa 0.0 l/m 0.0 km/h (0 Bft) N 0.00 h 0 W/m 13.6 C 14.9 C
Min-Datum _ 27.08.05 28.08.05 25.08.05 - 22.08.05 - - - 26.08.05 27.08.05
_ Min-Zeit 06:39 16:55 12:33 - 00:01 - - - 17:09 06:39
Minimum _ 10.4 C 40 % 1008.3 hPa - 0.0 km/h (0 Bft) - - - 8.2 C 10.4 C
Max-Datum _ 28.08.05 22.08.05 28.08.05 22.08.05 25.08.05 - 28.08.05 27.08.05 22.08.05 28.08.05
_ Max-Zeit 17:10 00:01 23:57 11:19 16:03 - 18:04 12:19 11:25 17:10
Maximum _ 26.1 C 100 % 1022.8 hPa 2.9 l/m 41.7 km/h
W-NW (6 Bft)
- 0.07 h 933 W/m 17.5 C 26.1 C
Durchschnitt _ 17.7 C 79 % 1015.2 hPa #19.8 l/m 6.0 km/h (2 Bft) W-NW #43:12 h 274 W/m 13.6 C 17.7 C

Durchschnitt Minimum Temp.17.3 C
Durchschnitt Maximum Temp.18.2 C
© Kaiko 2005